createdAt,value
2023-03-26T00:01:16.572Z,7.79
2023-03-26T00:03:43.629Z,7.80
2023-03-26T00:06:15.483Z,7.78
2023-03-26T00:08:43.676Z,7.83
2023-03-26T00:11:13.863Z,7.78
2023-03-26T00:13:41.442Z,7.73
2023-03-26T00:16:20.150Z,7.70
2023-03-26T00:18:46.579Z,7.67
2023-03-26T00:21:16.196Z,7.66
2023-03-26T00:23:45.165Z,7.68
2023-03-26T00:26:15.349Z,7.66
2023-03-26T00:28:42.648Z,7.65
2023-03-26T00:31:12.662Z,7.69
2023-03-26T00:33:40.674Z,7.71
2023-03-26T00:36:12.379Z,7.69
2023-03-26T00:38:48.894Z,7.69
2023-03-26T00:41:17.903Z,7.66
2023-03-26T00:43:46.085Z,7.66
2023-03-26T00:46:15.520Z,7.65
2023-03-26T00:48:47.460Z,7.64
2023-03-26T00:51:15.772Z,7.69
2023-03-26T00:53:46.499Z,7.76
2023-03-26T00:56:13.278Z,7.73
2023-03-26T00:58:44.942Z,7.69
2023-03-26T01:01:17.190Z,7.75
2023-03-26T01:03:53.642Z,7.79
2023-03-26T01:06:29.867Z,7.83
2023-03-26T01:08:56.616Z,7.86
2023-03-26T01:11:27.444Z,7.94
2023-03-26T01:14:07.258Z,7.92
2023-03-26T01:16:42.685Z,7.95
2023-03-26T01:19:20.079Z,7.96
2023-03-26T01:21:47.405Z,8.01
2023-03-26T01:24:16.495Z,7.99
2023-03-26T01:26:42.790Z,7.98
2023-03-26T01:29:19.942Z,7.97
2023-03-26T01:32:20.632Z,7.96
2023-03-26T01:35:03.509Z,7.97
2023-03-26T01:37:40.430Z,7.96
2023-03-26T01:40:26.730Z,7.92
2023-03-26T01:43:37.729Z,7.91
2023-03-26T01:46:07.344Z,7.89
2023-03-26T01:48:40.222Z,7.88
2023-03-26T01:51:12.071Z,7.89
2023-03-26T01:53:46.352Z,7.93
2023-03-26T01:56:26.959Z,7.91
2023-03-26T01:59:33.047Z,7.96
2023-03-26T02:02:02.957Z,7.94
2023-03-26T02:04:45.848Z,7.92
2023-03-26T02:07:49.896Z,7.91
2023-03-26T02:10:38.686Z,7.88
2023-03-26T02:13:06.383Z,7.86
2023-03-26T02:15:35.559Z,7.90
2023-03-26T02:18:01.958Z,7.93
2023-03-26T02:20:28.297Z,7.92
2023-03-26T02:22:58.549Z,7.93
2023-03-26T02:25:29.654Z,7.93
2023-03-26T02:27:55.950Z,7.97
2023-03-26T02:30:24.909Z,7.98
2023-03-26T02:32:52.552Z,8.05
2023-03-26T02:35:21.606Z,8.05
2023-03-26T02:37:48.241Z,8.06
2023-03-26T02:40:14.721Z,8.07
2023-03-26T02:42:45.089Z,8.09
2023-03-26T02:45:11.404Z,8.10
2023-03-26T02:47:37.759Z,8.11
2023-03-26T02:50:04.632Z,8.09
2023-03-26T02:52:31.414Z,8.12
2023-03-26T02:54:57.711Z,8.12
2023-03-26T02:57:27.086Z,8.13
2023-03-26T02:59:56.210Z,8.17
2023-03-26T03:02:22.833Z,8.16
2023-03-26T03:04:49.222Z,8.16
2023-03-26T03:07:17.906Z,8.15
2023-03-26T03:09:46.748Z,8.15
2023-03-26T03:12:13.051Z,8.18
2023-03-26T03:14:40.557Z,8.16
2023-03-26T03:17:08.373Z,8.14
2023-03-26T03:19:34.675Z,8.15
2023-03-26T03:22:00.990Z,8.17
2023-03-26T03:24:27.343Z,8.15
2023-03-26T03:26:53.841Z,8.13
2023-03-26T03:29:27.493Z,8.16
2023-03-26T03:31:53.844Z,8.19
2023-03-26T03:34:20.146Z,8.15
2023-03-26T03:36:46.501Z,8.13
2023-03-26T03:39:19.343Z,8.12
2023-03-26T03:41:50.037Z,8.10
2023-03-26T03:44:16.338Z,8.11
2023-03-26T03:46:42.701Z,8.14
2023-03-26T03:49:09.078Z,8.13
2023-03-26T03:51:35.359Z,8.10
2023-03-26T03:54:01.712Z,8.09
2023-03-26T03:56:30.478Z,8.15
2023-03-26T03:58:56.822Z,8.11
2023-03-26T04:01:25.621Z,8.10
2023-03-26T04:03:54.356Z,8.12
2023-03-26T04:06:20.756Z,8.10
2023-03-26T04:08:47.164Z,8.11
2023-03-26T04:11:19.000Z,8.11
2023-03-26T04:13:45.392Z,8.13
2023-03-26T04:16:14.178Z,8.13
2023-03-26T04:18:40.964Z,8.13
2023-03-26T04:21:07.665Z,8.14
2023-03-26T04:23:34.500Z,8.14
2023-03-26T04:26:04.693Z,8.14
2023-03-26T04:28:30.990Z,8.15
2023-03-26T04:30:59.750Z,8.11
2023-03-26T04:33:35.058Z,8.10
2023-03-26T04:36:03.479Z,8.11
2023-03-26T04:38:31.674Z,8.12
2023-03-26T04:40:58.006Z,8.15
2023-03-26T04:43:24.340Z,8.13
2023-03-26T04:45:50.658Z,8.12
2023-03-26T04:48:18.736Z,8.13
2023-03-26T04:50:45.626Z,8.16
2023-03-26T04:53:15.452Z,8.16
2023-03-26T04:55:49.693Z,8.16
2023-03-26T04:58:16.268Z,8.19
2023-03-26T05:00:45.428Z,8.21
2023-03-26T05:03:12.436Z,8.19
2023-03-26T05:05:40.029Z,8.18
2023-03-26T05:08:06.529Z,8.16
2023-03-26T05:10:36.424Z,8.16
2023-03-26T05:13:03.887Z,8.13
2023-03-26T05:15:30.193Z,8.13
2023-03-26T05:17:57.767Z,8.11
2023-03-26T05:20:27.603Z,8.11
2023-03-26T05:22:54.002Z,8.11
2023-03-26T05:25:25.669Z,8.08
2023-03-26T05:27:52.130Z,8.10
2023-03-26T05:30:24.648Z,8.07
2023-03-26T05:32:53.485Z,8.05
2023-03-26T05:35:20.946Z,8.07
2023-03-26T05:37:50.119Z,8.08
2023-03-26T05:40:17.098Z,8.05
2023-03-26T05:42:45.073Z,8.04
2023-03-26T05:45:15.796Z,8.04
2023-03-26T05:47:42.321Z,8.05
2023-03-26T05:50:09.942Z,8.06
2023-03-26T05:52:39.733Z,8.06
2023-03-26T05:55:13.356Z,8.05
2023-03-26T05:57:42.241Z,8.05
2023-03-26T06:00:08.998Z,8.06
2023-03-26T06:02:39.323Z,8.10
2023-03-26T06:05:05.998Z,8.10
2023-03-26T06:07:32.326Z,8.13
2023-03-26T06:10:01.336Z,8.13
2023-03-26T06:12:29.979Z,8.17
2023-03-26T06:14:56.264Z,8.20
2023-03-26T06:17:22.622Z,8.19
2023-03-26T06:19:51.302Z,8.17
2023-03-26T06:22:18.812Z,8.14
2023-03-26T06:24:45.118Z,8.18
2023-03-26T06:27:11.478Z,8.22
2023-03-26T06:29:37.887Z,8.23
2023-03-26T06:32:16.262Z,8.26
2023-03-26T06:34:45.741Z,8.25
2023-03-26T06:37:16.736Z,8.28
2023-03-26T06:39:43.098Z,8.27
2023-03-26T06:42:09.411Z,8.11
2023-03-26T06:44:35.748Z,8.16
2023-03-26T06:47:02.099Z,8.15
2023-03-26T06:49:28.580Z,8.12
2023-03-26T06:51:54.917Z,8.10
2023-03-26T06:54:21.204Z,8.07
2023-03-26T06:56:47.530Z,8.14
2023-03-26T06:59:13.837Z,8.22
2023-03-26T07:01:41.556Z,8.25
2023-03-26T07:04:07.911Z,8.32
2023-03-26T07:06:34.357Z,8.37
2023-03-26T07:09:03.516Z,8.39
2023-03-26T07:11:29.902Z,8.43
2023-03-26T07:13:59.217Z,8.44
2023-03-26T07:16:30.950Z,8.50
2023-03-26T07:19:07.074Z,8.55
2023-03-26T07:21:36.235Z,8.65
2023-03-26T07:24:05.798Z,8.61
2023-03-26T07:27:06.019Z,8.75
2023-03-26T07:29:43.163Z,8.81
2023-03-26T07:32:22.832Z,8.84
2023-03-26T07:35:08.027Z,8.92
2023-03-26T07:37:48.911Z,8.96
2023-03-26T07:40:53.124Z,8.92
2023-03-26T07:43:37.963Z,8.96
2023-03-26T07:46:11.005Z,8.93
2023-03-26T07:48:45.877Z,9.03
2023-03-26T07:51:12.845Z,9.04
2023-03-26T07:53:39.434Z,9.01
2023-03-26T07:56:11.580Z,8.99
2023-03-26T07:59:01.782Z,8.99
2023-03-26T08:01:52.701Z,9.05
2023-03-26T08:04:43.272Z,9.00
2023-03-26T08:07:41.868Z,9.00
2023-03-26T08:10:40.313Z,8.97
2023-03-26T08:13:34.150Z,8.95
2023-03-26T08:16:10.368Z,8.91
2023-03-26T08:19:15.381Z,8.96
2023-03-26T08:21:59.177Z,8.89
2023-03-26T08:25:03.247Z,8.91
2023-03-26T08:27:40.194Z,8.94
2023-03-26T08:30:18.613Z,8.92
2023-03-26T08:33:09.419Z,8.89
2023-03-26T08:35:37.092Z,8.93
2023-03-26T08:38:03.586Z,9.00
2023-03-26T08:40:44.854Z,9.04
2023-03-26T08:43:39.239Z,9.11
2023-03-26T08:46:14.670Z,8.99
2023-03-26T08:49:18.171Z,9.11
2023-03-26T08:52:08.466Z,9.19
2023-03-26T08:54:47.619Z,9.23
2023-03-26T08:57:50.389Z,9.22
2023-03-26T09:00:46.565Z,9.11
2023-03-26T09:03:36.597Z,9.06
2023-03-26T09:07:01.865Z,8.99
2023-03-26T09:09:40.130Z,8.97
2023-03-26T09:12:27.382Z,9.00
2023-03-26T09:15:12.699Z,9.18
2023-03-26T09:17:52.609Z,9.14
2023-03-26T09:20:47.651Z,9.26
2023-03-26T09:23:40.006Z,9.31
2023-03-26T09:26:32.054Z,9.19
2023-03-26T09:29:21.281Z,9.04
2023-03-26T09:31:59.509Z,9.02
2023-03-26T09:34:41.486Z,9.09
2023-03-26T09:37:24.829Z,9.10
2023-03-26T09:40:13.782Z,9.11
2023-03-26T09:42:49.400Z,8.94
2023-03-26T09:45:52.337Z,8.87
2023-03-26T09:48:41.115Z,8.88
2023-03-26T09:51:07.621Z,8.97
2023-03-26T09:54:05.083Z,9.13
2023-03-26T09:56:50.072Z,9.22
2023-03-26T09:59:49.600Z,9.23
2023-03-26T10:03:02.117Z,9.27
2023-03-26T10:05:44.437Z,9.28
2023-03-26T10:08:22.828Z,9.17
2023-03-26T10:10:59.253Z,9.12
2023-03-26T10:13:25.653Z,8.99
2023-03-26T10:16:13.252Z,8.98
2023-03-26T10:19:21.258Z,8.94
2023-03-26T10:22:13.278Z,8.95
2023-03-26T10:24:48.458Z,8.94
2023-03-26T10:27:26.521Z,8.77
2023-03-26T10:30:37.288Z,8.70
2023-03-26T10:33:22.436Z,8.79
2023-03-26T10:36:13.047Z,8.82
2023-03-26T10:39:04.450Z,8.70
2023-03-26T10:41:49.557Z,8.76
2023-03-26T10:44:38.045Z,8.73
2023-03-26T10:47:19.200Z,8.81
2023-03-26T10:50:06.077Z,8.79
2023-03-26T10:52:41.502Z,8.87
2023-03-26T10:55:15.276Z,8.83
2023-03-26T10:57:48.976Z,8.90
2023-03-26T11:00:26.629Z,9.00
2023-03-26T11:03:12.852Z,9.03
2023-03-26T11:06:17.260Z,8.88
2023-03-26T11:09:01.620Z,9.06
2023-03-26T11:11:31.711Z,9.02
2023-03-26T11:14:28.221Z,8.86
2023-03-26T11:17:40.795Z,8.64
2023-03-26T11:20:20.214Z,8.53
2023-03-26T11:23:03.557Z,8.61
2023-03-26T11:25:45.028Z,8.56
2023-03-26T11:28:41.127Z,8.48
2023-03-26T11:31:37.734Z,8.59
2023-03-26T11:34:13.181Z,8.59
2023-03-26T11:36:46.138Z,8.40
2023-03-26T11:39:20.513Z,8.59
2023-03-26T11:41:49.654Z,8.50
2023-03-26T11:45:00.482Z,8.42
2023-03-26T11:47:33.965Z,8.31
2023-03-26T11:50:04.589Z,8.38
2023-03-26T11:52:30.918Z,8.34
2023-03-26T11:55:05.980Z,8.40
2023-03-26T11:57:36.684Z,8.32
2023-03-26T12:00:11.877Z,8.33
2023-03-26T12:02:41.323Z,8.31
2023-03-26T12:05:20.125Z,8.40
2023-03-26T12:07:52.974Z,8.35
2023-03-26T12:10:39.386Z,8.31
2023-03-26T12:13:28.291Z,8.32
2023-03-26T12:16:09.841Z,8.44
2023-03-26T12:18:41.640Z,8.58
2023-03-26T12:21:18.892Z,8.59
2023-03-26T12:23:45.132Z,8.68
2023-03-26T12:26:16.494Z,8.76
2023-03-26T12:28:50.641Z,8.84
2023-03-26T12:31:19.792Z,8.95
2023-03-26T12:34:06.105Z,9.04
2023-03-26T12:36:34.798Z,9.33
2023-03-26T12:40:11.854Z,9.32
2023-03-26T12:44:46.870Z,9.61
2023-03-26T12:45:17.966Z,9.87
2023-03-26T12:47:59.790Z,10.11
2023-03-26T12:50:45.218Z,10.20
2023-03-26T12:53:27.910Z,10.17
2023-03-26T12:56:24.217Z,10.28
2023-03-26T12:59:08.758Z,10.26
2023-03-26T13:02:26.456Z,10.19
2023-03-26T13:05:06.820Z,10.04
2023-03-26T13:07:36.953Z,9.99
2023-03-26T13:10:27.998Z,9.96
2023-03-26T13:13:41.627Z,9.69
2023-03-26T13:16:42.039Z,9.77
2023-03-26T13:19:20.785Z,9.79
2023-03-26T13:21:51.751Z,9.82
2023-03-26T13:24:53.268Z,9.85
2023-03-26T13:27:31.179Z,9.91
2023-03-26T13:30:20.133Z,10.04
2023-03-26T13:32:52.389Z,9.98
2023-03-26T13:35:36.862Z,10.13
2023-03-26T13:38:06.145Z,10.17
2023-03-26T13:40:41.523Z,10.02
2023-03-26T13:43:34.090Z,10.03
2023-03-26T13:46:17.204Z,10.06
2023-03-26T13:48:59.769Z,10.16
2023-03-26T13:51:40.281Z,10.24
2023-03-26T13:54:19.196Z,10.27
2023-03-26T13:56:59.665Z,10.40
2023-03-26T13:59:39.468Z,10.42
2023-03-26T14:02:14.896Z,10.36
2023-03-26T14:04:47.521Z,10.02
2023-03-26T14:07:32.572Z,10.04
2023-03-26T14:10:06.201Z,10.07
2023-03-26T14:13:04.522Z,10.11
2023-03-26T14:15:37.334Z,10.01
2023-03-26T14:18:28.781Z,9.87
2023-03-26T14:21:14.013Z,9.90
2023-03-26T14:24:18.771Z,9.94
2023-03-26T14:27:09.694Z,9.95
2023-03-26T14:29:56.224Z,9.67
2023-03-26T14:32:43.139Z,9.61
2023-03-26T14:35:37.822Z,9.53
2023-03-26T14:38:26.329Z,9.45
2023-03-26T14:41:18.425Z,9.37
2023-03-26T14:44:17.281Z,9.44
2023-03-26T14:46:58.673Z,9.35
2023-03-26T14:50:03.755Z,9.33
2023-03-26T14:52:52.060Z,9.24
2023-03-26T14:55:40.849Z,9.33
2023-03-26T14:58:15.245Z,9.33
2023-03-26T15:01:22.426Z,9.40
2023-03-26T15:04:26.323Z,9.28
2023-03-26T15:07:32.857Z,9.13
2023-03-26T15:10:25.490Z,9.18
2023-03-26T15:13:20.933Z,9.25
2023-03-26T15:16:09.545Z,9.30
2023-03-26T15:18:50.421Z,9.16
2023-03-26T15:21:51.015Z,9.25
2023-03-26T15:24:42.821Z,9.45
2023-03-26T15:27:21.348Z,9.24
2023-03-26T15:30:16.397Z,9.42
2023-03-26T15:33:14.820Z,9.51
2023-03-26T15:36:27.996Z,9.63
2023-03-26T15:39:32.063Z,9.40
2023-03-26T15:42:16.591Z,9.42
2023-03-26T15:44:54.532Z,9.46
2023-03-26T15:47:48.146Z,9.29
2023-03-26T15:50:57.557Z,8.94
2023-03-26T15:53:49.798Z,9.03
2023-03-26T15:56:36.078Z,9.00
2023-03-26T15:59:41.290Z,8.84
2023-03-26T16:02:13.670Z,8.75
2023-03-26T16:04:59.519Z,8.70
2023-03-26T16:08:12.089Z,8.71
2023-03-26T16:10:58.393Z,8.65
2023-03-26T16:13:41.483Z,8.64
2023-03-26T16:16:14.464Z,8.46
2023-03-26T16:18:57.888Z,8.62
2023-03-26T16:21:38.938Z,8.44
2023-03-26T16:24:05.388Z,8.58
2023-03-26T16:26:31.836Z,8.33
2023-03-26T16:29:10.220Z,8.41
2023-03-26T16:31:38.704Z,8.40
2023-03-26T16:34:05.759Z,8.25
2023-03-26T16:36:35.970Z,8.21
2023-03-26T16:39:08.245Z,8.11
2023-03-26T16:41:55.712Z,8.13
2023-03-26T16:45:00.746Z,8.09
2023-03-26T16:47:59.172Z,8.00
2023-03-26T16:50:49.801Z,7.90
2023-03-26T16:53:39.252Z,7.95
2023-03-26T16:56:20.902Z,7.91
2023-03-26T16:58:59.728Z,7.87
2023-03-26T17:01:34.971Z,7.81
2023-03-26T17:04:09.611Z,7.90
2023-03-26T17:06:55.193Z,7.76
2023-03-26T17:09:51.985Z,7.83
2023-03-26T17:12:31.436Z,7.74
2023-03-26T17:15:03.892Z,7.66
2023-03-26T17:18:01.207Z,7.57
2023-03-26T17:20:37.240Z,7.60
2023-03-26T17:23:09.849Z,7.51
2023-03-26T17:25:44.237Z,7.43
2023-03-26T17:28:34.424Z,7.34
2023-03-26T17:31:21.678Z,7.22
2023-03-26T17:33:52.044Z,7.25
2023-03-26T17:36:42.854Z,7.21
2023-03-26T17:39:21.836Z,7.24
2023-03-26T17:42:18.204Z,7.32
2023-03-26T17:45:01.119Z,7.19
2023-03-26T17:47:29.297Z,7.18
2023-03-26T17:50:05.096Z,7.19
2023-03-26T17:52:48.025Z,7.15
2023-03-26T17:55:25.770Z,7.12
2023-03-26T17:57:57.856Z,7.00
2023-03-26T18:00:31.498Z,6.97
2023-03-26T18:03:06.022Z,6.95
2023-03-26T18:05:35.766Z,6.87
2023-03-26T18:08:29.991Z,6.79
2023-03-26T18:11:18.141Z,6.78
2023-03-26T18:14:07.621Z,6.76
2023-03-26T18:17:12.572Z,6.68
2023-03-26T18:20:07.868Z,6.53
2023-03-26T18:22:34.801Z,6.51
2023-03-26T18:25:02.505Z,6.40
2023-03-26T18:27:36.221Z,6.34
2023-03-26T18:30:17.179Z,6.35
2023-03-26T18:33:12.097Z,6.36
2023-03-26T18:35:53.390Z,6.38
2023-03-26T18:38:36.780Z,6.34
2023-03-26T18:41:05.884Z,6.41
2023-03-26T18:43:44.606Z,6.46
2023-03-26T18:46:14.172Z,6.49
2023-03-26T18:48:42.491Z,6.55
2023-03-26T18:51:12.686Z,6.63
2023-03-26T18:53:50.366Z,6.61
2023-03-26T18:56:42.575Z,6.62
2023-03-26T18:59:35.826Z,6.57
2023-03-26T19:02:14.050Z,6.57
2023-03-26T19:04:52.698Z,6.48
2023-03-26T19:07:23.650Z,6.37
2023-03-26T19:09:51.694Z,6.30
2023-03-26T19:12:22.910Z,6.21
2023-03-26T19:15:09.800Z,6.10
2023-03-26T19:17:44.216Z,6.00
2023-03-26T19:20:20.786Z,5.97
2023-03-26T19:22:48.198Z,5.94
2023-03-26T19:25:41.162Z,5.93
2023-03-26T19:28:16.360Z,6.02
2023-03-26T19:30:42.858Z,6.04
2023-03-26T19:33:22.995Z,6.11
2023-03-26T19:36:01.737Z,6.05
2023-03-26T19:38:29.830Z,6.13
2023-03-26T19:41:00.284Z,6.07
2023-03-26T19:43:27.223Z,5.97
2023-03-26T19:46:00.470Z,5.89
2023-03-26T19:48:45.796Z,5.83
2023-03-26T19:51:22.158Z,5.68
2023-03-26T19:53:52.963Z,5.63
2023-03-26T19:56:20.677Z,5.64
2023-03-26T19:58:47.828Z,5.55
2023-03-26T20:01:25.875Z,5.45
2023-03-26T20:03:56.174Z,5.41
2023-03-26T20:06:33.992Z,5.46
2023-03-26T20:09:05.850Z,5.38
2023-03-26T20:11:35.098Z,5.37
2023-03-26T20:14:16.390Z,5.34
2023-03-26T20:16:45.197Z,5.33
2023-03-26T20:19:12.573Z,5.26
2023-03-26T20:21:38.879Z,5.36
2023-03-26T20:24:12.433Z,5.37
2023-03-26T20:26:38.802Z,5.36
2023-03-26T20:29:06.324Z,5.37
2023-03-26T20:31:32.733Z,5.44
2023-03-26T20:34:01.473Z,5.42
2023-03-26T20:36:33.136Z,5.39
2023-03-26T20:39:02.658Z,5.40
2023-03-26T20:41:29.065Z,5.44
2023-03-26T20:43:56.856Z,5.37
2023-03-26T20:46:31.303Z,5.35
2023-03-26T20:49:00.579Z,5.35
2023-03-26T20:51:27.085Z,5.31
2023-03-26T20:53:53.477Z,5.30
2023-03-26T20:56:20.397Z,5.24
2023-03-26T20:58:50.579Z,5.17
2023-03-26T21:01:21.410Z,5.16
2023-03-26T21:03:47.741Z,5.03
2023-03-26T21:06:17.169Z,4.97
2023-03-26T21:08:45.026Z,4.94
2023-03-26T21:11:26.471Z,4.88
2023-03-26T21:14:05.832Z,4.82
2023-03-26T21:16:32.791Z,4.77
2023-03-26T21:18:59.452Z,4.70
2023-03-26T21:21:45.461Z,4.67
2023-03-26T21:24:23.257Z,4.62
2023-03-26T21:26:57.056Z,4.58
2023-03-26T21:29:23.682Z,4.55
2023-03-26T21:31:51.607Z,4.45
2023-03-26T21:34:20.130Z,4.36
2023-03-26T21:36:46.653Z,4.32
2023-03-26T21:39:13.250Z,4.33
2023-03-26T21:42:05.479Z,4.31
2023-03-26T21:44:35.211Z,4.28
2023-03-26T21:47:01.792Z,4.26
2023-03-26T21:49:28.547Z,4.20
2023-03-26T21:51:57.566Z,4.20
2023-03-26T21:54:27.430Z,4.12
2023-03-26T21:57:10.288Z,4.11
2023-03-26T21:59:47.166Z,4.13
2023-03-26T22:03:01.511Z,4.15
2023-03-26T22:06:06.375Z,4.16
2023-03-26T22:08:40.814Z,4.12
2023-03-26T22:11:10.812Z,4.10
2023-03-26T22:13:38.878Z,4.13
2023-03-26T22:16:11.934Z,4.20
2023-03-26T22:18:40.448Z,4.20
2023-03-26T22:21:09.218Z,4.23
2023-03-26T22:23:35.599Z,4.25
2023-03-26T22:26:03.164Z,4.30
2023-03-26T22:28:30.395Z,4.33
2023-03-26T22:30:56.966Z,4.45
2023-03-26T22:33:25.631Z,4.48
2023-03-26T22:35:53.185Z,4.48
2023-03-26T22:38:21.898Z,4.51
2023-03-26T22:40:55.382Z,4.47
2023-03-26T22:43:21.792Z,4.48
2023-03-26T22:45:51.841Z,4.50
2023-03-26T22:48:23.163Z,4.44
2023-03-26T22:51:01.223Z,4.36
2023-03-26T22:53:27.942Z,4.31
2023-03-26T22:55:56.465Z,4.24
2023-03-26T22:58:22.883Z,4.08
2023-03-26T23:00:51.522Z,3.94
2023-03-26T23:03:20.839Z,3.84
2023-03-26T23:06:06.666Z,3.68
2023-03-26T23:08:34.276Z,3.56
2023-03-26T23:11:01.714Z,3.55
2023-03-26T23:13:35.019Z,3.51
2023-03-26T23:16:01.474Z,3.52
2023-03-26T23:18:28.908Z,3.54
2023-03-26T23:20:58.256Z,3.59
2023-03-26T23:23:34.692Z,3.53
2023-03-26T23:26:03.541Z,3.60
2023-03-26T23:28:31.471Z,3.64
2023-03-26T23:31:01.448Z,3.69
2023-03-26T23:33:32.747Z,3.74
2023-03-26T23:36:00.338Z,3.80
2023-03-26T23:38:43.452Z,3.86
2023-03-26T23:41:11.024Z,3.92
2023-03-26T23:43:37.307Z,3.92
2023-03-26T23:46:03.694Z,3.99
2023-03-26T23:48:30.053Z,4.07
2023-03-26T23:51:03.193Z,4.10
2023-03-26T23:53:31.616Z,4.10
2023-03-26T23:55:58.620Z,4.09
2023-03-26T23:58:28.110Z,4.01
